Aviation Digital Data Service (ADDS)

Output produced by TAFs form (0439 UTC 28 July 2017)
found at http://www.aviationweather.gov/adds/tafs/
 
METAR text: RJCW 280400Z 22010KT 9999 SHRA FEW010 SCT060 BKN080 19/16 Q1010
Conditions at: RJCW (WAKKANAI AIRPORT, JP) observed 0400 UTC 28 July 2017
Temperature: 19.0°C (66°F)
Dewpoint: 16.0°C (61°F) [RH = 83%]
Pressure (altimeter): 29.82 inches Hg (1010.0 mb)
Winds: from the SW (220 degrees) at 12 MPH (10 knots; 5.2 m/s)
Visibility: 6 or more miles (10+ km)
Ceiling: 8000 feet AGL
Clouds: few clouds at 1000 feet AGL
scattered clouds at 6000 feet AGL
broken clouds at 8000 feet AGL
Weather: SHRA  (rain showers)